Hanover, Arkansas
Current Conditions -  °F | °C
As of 12:15 AM on Saturday 25 Oct 2014 (Local Time) from KBVX Reporting Station
Clear Clear  
Wind Chill: 63°   Ceiling: Unl
Heat Index: 63°   Visibility: 10mi
Dew Point: 54°   Wind: 3mph
Humidity: 72%   Direction: 230°SW
Pressure: 30.07"   Gusts: NA
Location:  35.8647°N, 92.1166°W
Report Text: KBVX 250515Z AUTO 23003KT 10SM CLR 17/12 A3007 RMK AO1
Loading
Personal Weather Stations






























Interactive Weather Map
Tropical Storm Tracking
New forecast layout! Learn more

10-Day Weather Forecast

Advertisements
Track Severe Weather on mobile